Time,TemperatureF,DewpointF,PressureIn,WindDirection,WindDirectionDegrees,WindSpeedMPH,WindSpeedGustMPH,Humidity,HourlyPrecipIn,Conditions,Clouds,dailyrainin,SoftwareType,DateUTC
2013-05-28 00:02:00,64.0,62.0,29.78,SE,136,1.0,6.0,94,0.00,,,0.07,,2013-05-28 05:02:00,
2013-05-28 00:12:00,64.0,62.0,29.78,SE,136,1.0,6.0,94,0.00,,,0.07,,2013-05-28 05:12:00,
2013-05-28 00:22:00,64.0,62.0,29.78,SE,136,4.0,8.0,94,0.05,,,0.12,,2013-05-28 05:22:00,
2013-05-28 00:33:00,64.0,62.0,29.78,SE,137,2.0,7.0,94,0.10,,,0.15,,2013-05-28 05:33:00,
2013-05-28 00:42:00,64.0,62.0,29.78,SE,137,2.0,7.0,94,0.10,,,0.15,,2013-05-28 05:42:00,
2013-05-28 00:52:00,64.0,62.0,29.78,SE,135,2.0,6.0,94,0.10,,,0.15,,2013-05-28 05:52:00,
2013-05-28 01:02:00,64.0,62.0,29.78,SE,143,2.0,5.0,94,0.10,,,0.15,,2013-05-28 06:02:00,
2013-05-28 01:12:00,64.0,62.0,29.78,SE,143,2.0,5.0,94,0.10,,,0.15,,2013-05-28 06:12:00,
2013-05-28 01:21:00,64.0,63.0,29.77,SE,139,2.0,7.0,95,0.05,,,0.15,,2013-05-28 06:21:00,
2013-05-28 01:32:00,64.0,63.0,29.76,SE,128,2.0,7.0,95,0.00,,,0.15,,2013-05-28 06:32:00,
2013-05-28 01:42:00,64.0,63.0,29.76,SE,128,2.0,7.0,95,0.00,,,0.15,,2013-05-28 06:42:00,
2013-05-28 01:51:00,64.0,63.0,29.75,SSE,148,1.0,8.0,95,0.00,,,0.15,,2013-05-28 06:51:00,
2013-05-28 02:01:00,64.0,63.0,29.75,SSE,147,2.0,7.0,95,0.00,,,0.15,,2013-05-28 07:01:00,
2013-05-28 02:11:00,64.0,63.0,29.75,SSE,147,2.0,7.0,95,0.00,,,0.15,,2013-05-28 07:11:00,
2013-05-28 02:21:00,64.0,63.0,29.74,SE,145,1.0,5.0,95,0.00,,,0.15,,2013-05-28 07:21:00,
2013-05-28 02:32:00,63.0,62.0,29.74,SE,135,1.0,7.0,95,0.00,,,0.15,,2013-05-28 07:32:00,
2013-05-28 02:42:00,63.0,62.0,29.74,SE,135,1.0,7.0,95,0.00,,,0.15,,2013-05-28 07:42:00,
2013-05-28 02:52:00,63.0,62.0,29.73,SE,135,2.0,5.0,95,0.00,,,0.15,,2013-05-28 07:52:00,
2013-05-28 03:02:00,63.0,62.0,29.73,ESE,123,1.0,4.0,95,0.00,,,0.15,,2013-05-28 08:02:00,
2013-05-28 03:12:00,63.0,62.0,29.73,ESE,123,1.0,4.0,95,0.00,,,0.15,,2013-05-28 08:12:00,
2013-05-28 03:22:00,63.0,62.0,29.72,SE,132,0.0,4.0,95,0.00,,,0.15,,2013-05-28 08:22:00,
2013-05-28 03:32:00,63.0,62.0,29.71,SE,134,2.0,7.0,95,0.00,,,0.15,,2013-05-28 08:32:00,
2013-05-28 03:42:00,63.0,62.0,29.71,SE,134,2.0,7.0,95,0.00,,,0.15,,2013-05-28 08:42:00,
2013-05-28 03:51:00,63.0,61.0,29.70,SE,133,1.0,7.0,94,0.00,,,0.15,,2013-05-28 08:51:00,
2013-05-28 04:01:00,63.0,61.0,29.70,SE,145,0.0,5.0,94,0.00,,,0.15,,2013-05-28 09:01:00,
2013-05-28 04:11:00,63.0,61.0,29.70,SE,145,0.0,5.0,94,0.00,,,0.15,,2013-05-28 09:11:00,
2013-05-28 04:21:00,63.0,61.0,29.70,SSE,167,1.0,6.0,94,0.00,,,0.15,,2013-05-28 09:21:00,
2013-05-28 04:33:00,63.0,61.0,29.70,SSE,155,0.0,8.0,94,0.00,,,0.15,,2013-05-28 09:33:00,
2013-05-28 04:42:00,63.0,61.0,29.70,SSE,155,0.0,8.0,94,0.00,,,0.15,,2013-05-28 09:42:00,
2013-05-28 04:53:00,63.0,61.0,29.71,SE,127,0.0,4.0,94,0.00,,,0.15,,2013-05-28 09:53:00,
2013-05-28 05:03:00,63.0,61.0,29.71,SE,143,1.0,4.0,94,0.00,,,0.15,,2013-05-28 10:03:00,
2013-05-28 05:12:00,63.0,61.0,29.71,SE,143,1.0,4.0,94,0.00,,,0.15,,2013-05-28 10:12:00,
2013-05-28 05:23:00,64.0,62.0,29.71,East,94,2.0,10.0,92,0.00,,,0.15,,2013-05-28 10:23:00,
2013-05-28 05:32:00,66.0,63.0,29.71,SSE,167,3.0,13.0,90,0.00,,,0.15,,2013-05-28 10:32:00,
2013-05-28 05:42:00,66.0,63.0,29.71,SSE,167,3.0,13.0,90,0.00,,,0.15,,2013-05-28 10:42:00,
2013-05-28 05:53:00,66.0,63.0,29.70,SW,221,5.0,11.0,89,0.00,,,0.15,,2013-05-28 10:53:00,
2013-05-28 06:02:00,66.0,63.0,29.71,South,182,4.0,13.0,89,0.00,,,0.15,,2013-05-28 11:02:00,
2013-05-28 06:11:00,66.0,63.0,29.71,South,182,4.0,13.0,89,0.00,,,0.15,,2013-05-28 11:11:00,
2013-05-28 06:22:00,66.0,63.0,29.72,SSE,151,3.0,10.0,90,0.00,,,0.15,,2013-05-28 11:22:00,
2013-05-28 06:32:00,66.0,63.0,29.71,ESE,113,4.0,11.0,91,0.03,,,0.18,,2013-05-28 11:32:00,
2013-05-28 06:42:00,66.0,63.0,29.71,ESE,113,4.0,11.0,91,0.03,,,0.18,,2013-05-28 11:42:00,
2013-05-28 06:52:00,65.0,63.0,29.70,SE,126,5.0,15.0,92,0.05,,,0.20,,2013-05-28 11:52:00,
2013-05-28 07:01:00,66.0,64.0,29.67,SE,130,6.0,19.0,92,0.06,,,0.21,,2013-05-28 12:01:00,
2013-05-28 07:11:00,66.0,64.0,29.67,SE,130,6.0,19.0,92,0.06,,,0.21,,2013-05-28 12:11:00,
2013-05-28 07:21:00,66.0,63.0,29.65,ESE,118,6.0,12.0,91,0.06,,,0.22,,2013-05-28 12:21:00,
2013-05-28 07:32:00,66.0,63.0,29.67,SE,138,4.0,14.0,90,0.04,,,0.22,,2013-05-28 12:32:00,
2013-05-28 07:42:00,66.0,63.0,29.67,SE,138,4.0,14.0,90,0.04,,,0.22,,2013-05-28 12:42:00,
2013-05-28 07:52:00,66.0,62.0,29.66,SSE,151,2.0,11.0,88,0.02,,,0.22,,2013-05-28 12:52:00,
2013-05-28 08:01:00,66.0,62.0,29.67,SSE,152,1.0,10.0,87,0.01,,,0.22,,2013-05-28 13:01:00,
2013-05-28 08:11:00,66.0,62.0,29.67,SSE,152,1.0,10.0,87,0.01,,,0.22,,2013-05-28 13:11:00,
2013-05-28 08:21:00,66.0,62.0,29.70,West,267,4.0,9.0,88,0.00,,,0.22,,2013-05-28 13:21:00,
2013-05-28 08:32:00,66.0,63.0,29.71,West,265,2.0,7.0,89,0.00,,,0.22,,2013-05-28 13:32:00,
2013-05-28 08:42:00,66.0,63.0,29.71,West,265,2.0,7.0,89,0.00,,,0.22,,2013-05-28 13:42:00,
2013-05-28 08:52:00,66.0,63.0,29.72,WSW,248,1.0,7.0,89,0.00,,,0.22,,2013-05-28 13:52:00,
2013-05-28 09:02:00,66.0,62.0,29.71,SSE,150,0.0,5.0,88,0.00,,,0.22,,2013-05-28 14:02:00,
2013-05-28 09:11:00,66.0,62.0,29.71,SSE,150,0.0,5.0,88,0.00,,,0.22,,2013-05-28 14:11:00,
2013-05-28 09:21:00,66.0,63.0,29.70,SSW,194,0.0,4.0,89,0.00,,,0.22,,2013-05-28 14:21:00,
2013-05-28 09:32:00,66.0,63.0,29.72,WSW,247,1.0,9.0,89,0.00,,,0.21,,2013-05-28 14:32:00,
2013-05-28 09:42:00,66.0,63.0,29.72,WSW,247,1.0,9.0,89,0.00,,,0.21,,2013-05-28 14:42:00,
2013-05-28 09:52:00,66.0,63.0,29.70,West,261,0.0,6.0,89,0.00,,,0.21,,2013-05-28 14:52:00,
2013-05-28 10:01:00,66.0,63.0,29.70,West,261,0.0,6.0,89,0.00,,,0.21,,2013-05-28 15:01:00,
2013-05-28 10:11:00,66.0,63.0,29.70,West,261,0.0,6.0,89,0.00,,,0.21,,2013-05-28 15:11:00,
2013-05-28 10:21:00,67.0,64.0,29.70,South,173,0.0,4.0,89,0.00,,,0.21,,2013-05-28 15:21:00,
2013-05-28 10:33:00,68.0,65.0,29.70,WSW,257,1.0,5.0,90,0.00,,,0.21,,2013-05-28 15:33:00,
2013-05-28 10:43:00,68.0,65.0,29.70,WSW,257,1.0,5.0,90,0.00,,,0.21,,2013-05-28 15:43:00,
2013-05-28 10:52:00,70.0,66.0,29.70,West,269,2.0,6.0,86,0.00,,,0.21,,2013-05-28 15:52:00,
2013-05-28 11:03:00,71.0,66.0,29.70,SW,233,1.0,8.0,84,0.00,,,0.21,,2013-05-28 16:03:00,
2013-05-28 11:12:00,71.0,66.0,29.70,SW,233,1.0,8.0,84,0.00,,,0.21,,2013-05-28 16:12:00,
2013-05-28 11:22:00,71.0,66.0,29.70,SSE,150,1.0,7.0,84,0.00,,,0.21,,2013-05-28 16:22:00,
2013-05-28 11:33:00,71.0,66.0,29.70,SSE,160,2.0,9.0,83,0.00,,,0.21,,2013-05-28 16:33:00,
2013-05-28 11:42:00,71.0,66.0,29.70,SSE,160,2.0,9.0,83,0.00,,,0.21,,2013-05-28 16:42:00,
2013-05-28 11:52:00,71.0,66.0,29.70,SE,133,0.0,7.0,84,0.00,,,0.21,,2013-05-28 16:52:00,
2013-05-28 12:02:00,71.0,66.0,29.70,SE,128,0.0,7.0,85,0.00,,,0.21,,2013-05-28 17:02:00,
2013-05-28 12:12:00,71.0,66.0,29.70,SE,128,0.0,7.0,85,0.00,,,0.21,,2013-05-28 17:12:00,
2013-05-28 12:22:00,71.0,66.0,29.70,SE,128,0.0,7.0,85,0.00,,,0.21,,2013-05-28 17:22:00,
2013-05-28 12:32:00,71.0,67.0,29.70,SSE,148,0.0,7.0,87,0.00,,,0.21,,2013-05-28 17:32:00,
2013-05-28 12:42:00,72.0,68.0,29.70,SE,131,2.0,7.0,86,0.00,,,0.21,,2013-05-28 17:42:00,
2013-05-28 12:52:00,72.0,68.0,29.70,SE,131,2.0,7.0,86,0.00,,,0.21,,2013-05-28 17:52:00,
2013-05-28 13:01:00,73.0,68.0,29.70,ESE,121,2.0,10.0,85,0.00,,,0.21,,2013-05-28 18:01:00,
2013-05-28 13:11:00,73.0,68.0,29.70,ESE,121,2.0,10.0,85,0.00,,,0.21,,2013-05-28 18:11:00,
2013-05-28 13:21:00,73.0,68.0,29.70,West,275,3.0,9.0,84,0.00,,,0.21,,2013-05-28 18:21:00,
2013-05-28 13:32:00,74.0,68.0,29.70,West,269,4.0,9.0,83,0.00,,,0.21,,2013-05-28 18:32:00,
2013-05-28 13:42:00,74.0,68.0,29.70,West,269,4.0,9.0,83,0.00,,,0.21,,2013-05-28 18:42:00,
2013-05-28 13:52:00,75.0,69.0,29.70,ESE,108,2.0,8.0,82,0.00,,,0.21,,2013-05-28 18:52:00,
2013-05-28 14:01:00,76.0,69.0,29.69,West,268,3.0,8.0,80,0.00,,,0.21,,2013-05-28 19:01:00,
2013-05-28 14:11:00,76.0,69.0,29.69,West,268,3.0,8.0,80,0.00,,,0.21,,2013-05-28 19:11:00,
2013-05-28 14:21:00,76.0,70.0,29.69,NE,44,3.0,18.0,81,0.00,,,0.21,,2013-05-28 19:21:00,
2013-05-28 14:32:00,76.0,70.0,29.70,SW,234,2.0,7.0,81,0.00,,,0.21,,2013-05-28 19:32:00,
2013-05-28 14:42:00,76.0,70.0,29.70,SW,234,2.0,7.0,81,0.00,,,0.21,,2013-05-28 19:42:00,
2013-05-28 14:52:00,76.0,70.0,29.70,West,269,2.0,9.0,81,0.00,,,0.21,,2013-05-28 19:52:00,
2013-05-28 15:01:00,76.0,70.0,29.70,NNW,329,1.0,8.0,81,0.00,,,0.21,,2013-05-28 20:01:00,
2013-05-28 15:11:00,76.0,70.0,29.70,NNW,329,1.0,8.0,81,0.00,,,0.21,,2013-05-28 20:11:00,
2013-05-28 15:22:00,77.0,70.0,29.70,East,94,2.0,8.0,80,0.00,,,0.21,,2013-05-28 20:22:00,
2013-05-28 15:32:00,77.0,70.0,29.70,West,277,2.0,9.0,80,0.00,,,0.21,,2013-05-28 20:32:00,
2013-05-28 15:42:00,77.0,70.0,29.70,West,277,2.0,9.0,80,0.00,,,0.21,,2013-05-28 20:42:00,
2013-05-28 15:52:00,77.0,71.0,29.70,SSW,208,1.0,4.0,82,0.00,,,0.21,,2013-05-28 20:52:00,
2013-05-28 16:02:00,77.0,71.0,29.70,SE,138,1.0,5.0,82,0.00,,,0.21,,2013-05-28 21:02:00,
2013-05-28 16:11:00,77.0,71.0,29.70,SE,138,1.0,5.0,82,0.00,,,0.21,,2013-05-28 21:11:00,
2013-05-28 16:21:00,77.0,70.0,29.70,SSW,196,2.0,11.0,80,0.00,,,0.21,,2013-05-28 21:21:00,
2013-05-28 16:33:00,78.0,70.0,29.70,West,269,4.0,18.0,77,0.00,,,0.21,,2013-05-28 21:33:00,
2013-05-28 16:43:00,78.0,70.0,29.70,West,269,4.0,18.0,77,0.00,,,0.21,,2013-05-28 21:43:00,
2013-05-28 16:53:00,78.0,70.0,29.70,West,280,5.0,13.0,77,0.00,,,0.21,,2013-05-28 21:53:00,
2013-05-28 17:02:00,77.0,70.0,29.71,WSW,248,5.0,16.0,79,0.00,,,0.21,,2013-05-28 22:02:00,
2013-05-28 17:12:00,77.0,70.0,29.71,WSW,248,5.0,16.0,79,0.00,,,0.21,,2013-05-28 22:12:00,
2013-05-28 17:22:00,77.0,70.0,29.71,WSW,249,3.0,14.0,79,0.00,,,0.21,,2013-05-28 22:22:00,
2013-05-28 17:32:00,77.0,70.0,29.70,West,275,3.0,10.0,78,0.00,,,0.21,,2013-05-28 22:32:00,
2013-05-28 17:42:00,77.0,70.0,29.70,West,279,1.0,9.0,80,0.00,,,0.21,,2013-05-28 22:42:00,
2013-05-28 17:52:00,77.0,70.0,29.70,West,279,1.0,9.0,80,0.00,,,0.21,,2013-05-28 22:52:00,
2013-05-28 18:02:00,76.0,70.0,29.70,SE,134,3.0,12.0,81,0.00,,,0.21,,2013-05-28 23:02:00,
2013-05-28 18:11:00,76.0,70.0,29.70,SE,134,3.0,12.0,81,0.00,,,0.21,,2013-05-28 23:11:00,
2013-05-28 18:22:00,76.0,70.0,29.70,ENE,73,3.0,9.0,81,0.00,,,0.21,,2013-05-28 23:22:00,
2013-05-28 18:32:00,75.0,69.0,29.67,SSE,148,1.0,8.0,82,0.00,,,0.21,,2013-05-28 23:32:00,
2013-05-28 18:42:00,75.0,69.0,29.67,SSE,148,1.0,8.0,82,0.00,,,0.21,,2013-05-28 23:42:00,
2013-05-28 18:52:00,75.0,69.0,29.67,SE,142,1.0,4.0,83,0.00,,,0.21,,2013-05-28 23:52:00,
2013-05-28 19:02:00,74.0,69.0,29.70,West,269,1.0,10.0,84,0.00,,,0.21,,2013-05-29 00:02:00,
2013-05-28 19:11:00,74.0,69.0,29.70,West,269,1.0,10.0,84,0.00,,,0.21,,2013-05-29 00:11:00,
2013-05-28 19:21:00,73.0,69.0,29.71,West,273,2.0,8.0,86,0.03,,,0.24,,2013-05-29 00:21:00,
2013-05-28 19:32:00,72.0,69.0,29.70,SSW,196,3.0,8.0,89,0.03,,,0.24,,2013-05-29 00:32:00,
2013-05-28 19:41:00,72.0,69.0,29.70,SSW,196,3.0,8.0,89,0.03,,,0.24,,2013-05-29 00:41:00,
2013-05-28 19:52:00,72.0,69.0,29.71,SE,128,4.0,13.0,89,0.04,,,0.25,,2013-05-29 00:52:00,
2013-05-28 20:01:00,69.0,65.0,29.68,SE,128,4.0,11.0,87,0.04,,,0.25,,2013-05-29 01:01:00,
2013-05-28 20:11:00,69.0,65.0,29.68,SE,128,4.0,11.0,87,0.04,,,0.25,,2013-05-29 01:11:00,
2013-05-28 20:22:00,68.0,64.0,29.62,ESE,111,2.0,10.0,87,0.01,,,0.25,,2013-05-29 01:22:00,
2013-05-28 20:32:00,68.0,63.0,29.68,NNW,328,5.0,10.0,85,0.01,,,0.25,,2013-05-29 01:32:00,
2013-05-28 20:42:00,68.0,63.0,29.68,NNW,328,5.0,10.0,85,0.01,,,0.25,,2013-05-29 01:42:00,
2013-05-28 20:52:00,68.0,63.0,29.72,West,262,3.0,16.0,85,0.00,,,0.25,,2013-05-29 01:52:00,
2013-05-28 21:02:00,68.0,64.0,29.68,NNW,343,2.0,5.0,86,0.00,,,0.25,,2013-05-29 02:02:00,
2013-05-28 21:12:00,68.0,64.0,29.68,NNW,343,2.0,5.0,86,0.00,,,0.25,,2013-05-29 02:12:00,
2013-05-28 21:21:00,68.0,64.0,29.71,NW,308,0.0,1.0,87,0.00,,,0.25,,2013-05-29 02:21:00,
2013-05-28 21:32:00,68.0,64.0,29.74,WSW,237,0.0,3.0,88,0.00,,,0.25,,2013-05-29 02:32:00,
2013-05-28 21:42:00,68.0,64.0,29.74,WSW,245,1.0,4.0,88,0.00,,,0.25,,2013-05-29 02:42:00,
2013-05-28 21:51:00,68.0,64.0,29.74,WSW,245,1.0,4.0,88,0.00,,,0.25,,2013-05-29 02:51:00,
2013-05-28 22:02:00,68.0,64.0,29.75,WSW,246,0.0,1.0,87,0.00,,,0.25,,2013-05-29 03:02:00,
2013-05-28 22:12:00,68.0,64.0,29.75,WSW,246,0.0,1.0,87,0.00,,,0.25,,2013-05-29 03:12:00,
2013-05-28 22:21:00,68.0,64.0,29.77,WSW,245,0.0,1.0,88,0.00,,,0.25,,2013-05-29 03:21:00,
2013-05-28 22:33:00,68.0,64.0,29.77,SSW,198,0.0,3.0,87,0.00,,,0.22,,2013-05-29 03:33:00,
2013-05-28 22:43:00,68.0,64.0,29.77,SSW,198,0.0,3.0,87,0.00,,,0.22,,2013-05-29 03:43:00,
2013-05-28 22:53:00,68.0,63.0,29.77,ESE,108,1.0,4.0,85,0.00,,,0.22,,2013-05-29 03:53:00,
2013-05-28 23:02:00,68.0,64.0,29.77,SE,134,0.0,5.0,86,0.00,,,0.22,,2013-05-29 04:02:00,
2013-05-28 23:13:00,68.0,64.0,29.77,SE,134,0.0,5.0,86,0.00,,,0.22,,2013-05-29 04:13:00,
2013-05-28 23:23:00,68.0,64.0,29.77,SE,136,0.0,2.0,86,0.00,,,0.22,,2013-05-29 04:23:00,
2013-05-28 23:33:00,69.0,65.0,29.78,WSW,251,2.0,6.0,88,0.00,,,0.21,,2013-05-29 04:33:00,
2013-05-28 23:42:00,69.0,65.0,29.78,WSW,251,2.0,6.0,88,0.00,,,0.21,,2013-05-29 04:42:00,
2013-05-28 23:52:00,69.0,64.0,29.77,WSW,242,3.0,11.0,84,0.00,,,0.21,,2013-05-29 04:52:00,